El'ton, Russia
Current Conditions -  °F | °C
As of 11:00 PM on Wednesday 28 Jan 2015 (Local Time) from URWW Reporting Station
Broken Clouds Broken Clouds  
Wind Chill:   Ceiling: 2100
Heat Index: 16°   Visibility: 6mi
Dew Point: 14°   Wind: 11mph
Humidity: 93%   Direction: 80°E
Pressure: 30.06"   Gusts: NA
Location:  49.12°N, 46.56°E
Report Text: URWW 282000Z 08005MPS 9999 SCT008 BKN021 M09/M10 Q1018 NOSIGRMK 11810260
Loading
Personal Weather Stations






























Interactive Weather Map New forecast layout! Learn more

10-Day Weather Forecast

Advertisements
Track Severe Weather on mobile